Time;durP1;ratioP1;P1;durP2;ratioP2;P2;SDS_P1;SDS_P2;PMS_P1;PMS_P2;Temp;Humidity;BMP_temperature;BMP_pressure;BME280_temperature;BME280_humidity;BME280_pressure;Samples;Min_cycle;Max_cycle;Signal;HPM_P1;HPM_P2
2023/06/30 00:00:26;;;;;;;46.78;28.13;;;22.90;54.70;;;;;;4904700;29;20099;-61
2023/06/30 00:02:55;;;;;;;43.78;26.65;;;22.90;54.80;;;;;;4904380;29;20056;-61
2023/06/30 00:05:23;;;;;;;44.75;26.20;;;22.90;54.90;;;;;;4904149;29;20519;-62
2023/06/30 00:07:54;;;;;;;51.33;30.85;;;22.80;55.00;;;;;;4904369;29;20055;-65
2023/06/30 00:10:23;;;;;;;49.85;30.48;;;22.80;55.40;;;;;;4903763;29;20079;-63
2023/06/30 00:12:50;;;;;;;44.65;26.85;;;22.80;55.60;;;;;;4901319;29;20044;-62
2023/06/30 00:15:18;;;;;;;47.97;28.90;;;22.70;55.60;;;;;;4903831;29;20512;-63
2023/06/30 00:17:48;;;;;;;53.30;31.55;;;22.70;55.80;;;;;;4903356;29;20059;-65
2023/06/30 00:20:15;;;;;;;49.65;29.08;;;22.60;56.00;;;;;;4903847;29;20361;-65
2023/06/30 00:22:42;;;;;;;48.58;30.35;;;22.60;56.20;;;;;;4903929;29;20055;-64
2023/06/30 00:25:10;;;;;;;45.83;27.23;;;22.50;56.40;;;;;;4904102;29;20064;-64
2023/06/30 00:27:39;;;;;;;47.83;28.58;;;22.40;56.50;;;;;;4902646;29;20052;-63
2023/06/30 00:30:07;;;;;;;46.20;28.40;;;22.40;56.60;;;;;;4904057;29;20523;-64
2023/06/30 00:32:35;;;;;;;48.08;29.10;;;22.40;56.80;;;;;;4904112;29;20060;-62
2023/06/30 00:35:03;;;;;;;43.60;26.63;;;22.40;56.90;;;;;;4901850;29;20420;-64
2023/06/30 00:37:30;;;;;;;45.85;28.30;;;22.30;56.90;;;;;;4903557;29;20421;-63
2023/06/30 00:39:57;;;;;;;46.25;28.00;;;22.30;57.00;;;;;;4903186;29;20059;-64
2023/06/30 00:42:25;;;;;;;46.95;28.25;;;22.30;57.00;;;;;;4901040;29;20055;-63
2023/06/30 00:44:54;;;;;;;48.63;30.02;;;22.30;57.20;;;;;;4902103;29;20082;-63
2023/06/30 00:47:21;;;;;;;45.08;26.25;;;22.30;57.30;;;;;;4902816;29;20059;-62
2023/06/30 00:49:48;;;;;;;49.17;28.48;;;22.30;57.30;;;;;;4901145;29;20079;-63
2023/06/30 00:52:16;;;;;;;50.60;28.00;;;22.30;57.40;;;;;;4902501;29;20398;-62
2023/06/30 00:54:43;;;;;;;44.25;27.05;;;22.30;57.50;;;;;;4902967;29;20063;-63
2023/06/30 00:57:10;;;;;;;55.65;31.60;;;22.30;57.40;;;;;;4902902;29;20060;-64
2023/06/30 00:59:37;;;;;;;55.55;31.70;;;22.30;57.60;;;;;;4903932;29;20074;-63
2023/06/30 01:02:13;;;;;;;55.40;31.58;;;22.30;57.70;;;;;;4935926;23;20062;-57
2023/06/30 01:04:48;;;;;;;57.30;34.20;;;22.30;58.00;;;;;;4935560;29;20051;-58
2023/06/30 01:07:23;;;;;;;50.92;33.05;;;22.20;58.20;;;;;;4938654;29;20051;-60
2023/06/30 01:09:57;;;;;;;54.17;33.30;;;22.20;58.10;;;;;;4936387;29;20055;-61
2023/06/30 01:12:25;;;;;;;;;;;22.10;58.30;;;;;;4934905;29;20062;-59
2023/06/30 01:14:54;;;;;;;51.20;32.85;;;22.10;57.80;;;;;;4937749;29;19922;-60
2023/06/30 01:17:24;;;;;;;51.25;31.15;;;22.00;58.20;;;;;;4937798;29;20059;-59
2023/06/30 01:19:54;;;;;;;51.00;32.55;;;21.80;58.60;;;;;;4936808;29;20055;-59
2023/06/30 01:22:26;;;;;;;49.58;31.98;;;21.80;59.10;;;;;;4937813;29;20047;-59
2023/06/30 01:24:59;;;;;;;38.83;25.98;;;21.70;59.50;;;;;;4934620;29;20070;-59
2023/06/30 01:27:26;;;;;;;29.67;20.15;;;21.50;59.70;;;;;;4935463;29;20606;-59
2023/06/30 01:29:54;;;;;;;21.02;14.52;;;21.40;59.90;;;;;;4939730;29;20384;-65
2023/06/30 01:32:23;;;;;;;15.40;12.18;;;21.30;60.20;;;;;;4936801;29;20062;-60
2023/06/30 01:34:50;;;;;;;15.95;11.95;;;21.20;60.30;;;;;;4937078;29;20066;-63
2023/06/30 01:37:18;;;;;;;14.00;11.15;;;21.10;60.60;;;;;;4931875;29;20056;-63
2023/06/30 01:39:45;;;;;;;14.13;10.88;;;21.00;61.30;;;;;;4935941;29;20062;-63
2023/06/30 01:42:14;;;;;;;13.82;11.10;;;20.90;61.70;;;;;;4933658;29;20411;-64
2023/06/30 01:44:42;;;;;;;14.27;11.00;;;20.70;62.20;;;;;;4937274;29;20051;-64
2023/06/30 01:47:11;;;;;;;14.30;10.57;;;20.60;62.60;;;;;;4937751;28;20051;-65
2023/06/30 01:49:39;;;;;;;13.75;11.23;;;20.50;63.10;;;;;;4941446;29;20067;-64
2023/06/30 01:52:07;;;;;;;11.85;10.00;;;20.40;63.60;;;;;;4944514;29;20055;-62
2023/06/30 01:54:34;;;;;;;11.18;9.20;;;20.30;64.10;;;;;;4939631;29;20503;-64
2023/06/30 01:57:01;;;;;;;12.55;8.80;;;20.20;64.60;;;;;;4941621;29;20701;-62
2023/06/30 01:59:29;;;;;;;12.10;9.52;;;20.10;64.70;;;;;;4941218;29;20086;-62
2023/06/30 02:01:56;;;;;;;12.77;10.10;;;20.00;65.10;;;;;;4927376;29;20056;-63
2023/06/30 02:04:23;;;;;;;12.23;10.00;;;20.00;65.60;;;;;;4925092;29;20527;-62
2023/06/30 02:06:52;;;;;;;12.55;10.43;;;19.90;65.90;;;;;;4923048;29;20404;-62
2023/06/30 02:09:19;;;;;;;11.35;9.95;;;19.80;66.30;;;;;;4923596;29;20052;-63
2023/06/30 02:11:46;;;;;;;12.25;10.27;;;19.80;66.70;;;;;;4923271;29;20070;-56
2023/06/30 02:14:14;;;;;;;13.93;11.38;;;19.70;67.00;;;;;;4921278;29;20071;-60
2023/06/30 02:16:41;;;;;;;14.52;11.70;;;19.70;67.30;;;;;;4923907;29;20060;-56
2023/06/30 02:19:09;;;;;;;16.80;12.45;;;19.60;67.60;;;;;;4922175;29;20705;-58
2023/06/30 02:21:36;;;;;;;14.65;11.52;;;19.60;68.00;;;;;;4923547;29;20339;-56
2023/06/30 02:24:05;;;;;;;12.82;10.63;;;19.50;68.20;;;;;;4924346;29;20059;-58
2023/06/30 02:26:33;;;;;;;12.23;10.38;;;19.50;68.40;;;;;;4922870;29;20106;-56
2023/06/30 02:29:00;;;;;;;13.63;10.90;;;19.50;68.50;;;;;;4925685;29;20575;-57
2023/06/30 02:31:27;;;;;;;14.77;11.70;;;19.50;68.80;;;;;;4924590;29;20071;-59
2023/06/30 02:33:54;;;;;;;13.85;11.68;;;19.40;69.00;;;;;;4923644;29;20590;-58
2023/06/30 02:36:22;;;;;;;15.65;12.25;;;19.40;69.20;;;;;;4922434;29;20067;-56
2023/06/30 02:38:49;;;;;;;15.23;12.52;;;19.40;69.40;;;;;;4924584;29;20063;-58
2023/06/30 02:41:17;;;;;;;19.65;12.73;;;19.40;69.40;;;;;;4922595;29;20502;-55
2023/06/30 02:43:45;;;;;;;11.57;10.38;;;19.40;69.40;;;;;;4922956;29;20472;-55
2023/06/30 02:46:12;;;;;;;10.68;8.85;;;19.40;69.20;;;;;;4924002;29;20052;-56
2023/06/30 02:48:39;;;;;;;9.30;7.28;;;19.40;69.10;;;;;;4920162;29;20059;-52
2023/06/30 02:51:06;;;;;;;8.10;7.20;;;19.40;68.70;;;;;;4919471;29;21276;-53
2023/06/30 02:53:34;;;;;;;8.40;6.25;;;19.40;68.10;;;;;;4923716;29;20066;-58
2023/06/30 02:56:01;;;;;;;7.80;5.97;;;19.30;67.90;;;;;;4923682;29;20412;-57
2023/06/30 02:58:30;;;;;;;6.03;5.13;;;19.20;68.00;;;;;;4922236;29;20074;-58
2023/06/30 03:00:57;;;;;;;7.38;5.07;;;19.20;67.60;;;;;;4920241;29;20074;-59
2023/06/30 03:03:24;;;;;;;5.68;5.03;;;19.20;67.60;;;;;;4922960;29;20059;-59
2023/06/30 03:05:52;;;;;;;6.78;5.20;;;19.10;67.60;;;;;;4922021;29;20089;-59
2023/06/30 03:08:19;;;;;;;4.93;4.22;;;19.00;67.80;;;;;;4923084;29;20063;-60
2023/06/30 03:10:48;;;;;;;5.18;4.25;;;19.00;67.90;;;;;;4920071;29;20056;-58
2023/06/30 03:13:16;;;;;;;6.00;4.55;;;19.00;68.20;;;;;;4921194;29;20511;-61
2023/06/30 03:15:44;;;;;;;6.70;4.93;;;18.90;68.10;;;;;;4921330;29;20070;-61
2023/06/30 03:18:11;;;;;;;6.60;4.55;;;18.90;67.80;;;;;;4919564;29;20059;-59
2023/06/30 03:20:39;;;;;;;4.80;4.40;;;18.90;67.40;;;;;;4921436;29;20989;-57
2023/06/30 03:23:06;;;;;;;5.57;4.15;;;18.80;67.00;;;;;;4923070;29;20051;-60
2023/06/30 03:25:33;;;;;;;6.25;4.35;;;18.70;67.00;;;;;;4921445;29;20056;-58
2023/06/30 03:28:00;;;;;;;6.90;4.38;;;18.70;67.30;;;;;;4922902;29;20514;-60
2023/06/30 03:30:27;;;;;;;6.50;4.50;;;18.60;67.30;;;;;;4921553;29;20051;-58
2023/06/30 03:32:56;;;;;;;7.80;4.65;;;18.50;67.30;;;;;;4920476;29;20059;-58
2023/06/30 03:35:23;;;;;;;11.27;4.10;;;18.50;67.50;;;;;;4922379;29;20063;-59
2023/06/30 03:37:51;;;;;;;6.30;4.13;;;18.40;67.60;;;;;;4921505;29;20067;-57
2023/06/30 03:40:18;;;;;;;11.35;4.40;;;18.40;67.90;;;;;;4921205;29;20055;-59
2023/06/30 03:42:46;;;;;;;7.63;4.15;;;18.30;67.50;;;;;;4922178;29;20063;-59
2023/06/30 03:45:13;;;;;;;6.60;4.07;;;18.30;67.70;;;;;;4921266;29;20075;-61
2023/06/30 03:47:40;;;;;;;6.55;4.38;;;18.20;67.60;;;;;;4923665;29;20051;-58
2023/06/30 03:50:10;;;;;;;6.90;4.13;;;18.10;67.60;;;;;;4922468;29;20055;-59
2023/06/30 03:52:37;;;;;;;7.82;5.05;;;18.10;67.80;;;;;;4920973;29;20059;-64
2023/06/30 03:55:05;;;;;;;9.05;5.32;;;18.10;68.60;;;;;;4922649;29;20059;-61
2023/06/30 03:57:32;;;;;;;8.68;5.18;;;18.00;68.90;;;;;;4918988;29;20066;-58
2023/06/30 04:00:00;;;;;;;10.10;6.18;;;17.90;68.50;;;;;;4920604;29;20441;-59
2023/06/30 04:02:27;;;;;;;8.40;6.18;;;17.80;68.80;;;;;;4919273;29;20089;-62
2023/06/30 04:04:54;;;;;;;9.60;6.93;;;17.80;69.20;;;;;;4918348;29;20055;-58
2023/06/30 04:07:23;;;;;;;13.27;8.00;;;17.70;69.50;;;;;;4917721;29;20062;-59
2023/06/30 04:09:50;;;;;;;12.05;7.30;;;17.70;69.70;;;;;;4919929;29;20058;-60
2023/06/30 04:12:17;;;;;;;9.40;6.93;;;17.70;70.00;;;;;;4919953;29;20522;-61
2023/06/30 04:14:45;;;;;;;10.73;6.45;;;17.70;70.20;;;;;;4920087;29;20059;-60
2023/06/30 04:17:12;;;;;;;11.75;6.45;;;17.60;70.50;;;;;;4916898;29;20055;-61
2023/06/30 04:19:39;;;;;;;11.60;6.43;;;17.60;70.70;;;;;;4921683;29;20051;-59
2023/06/30 04:22:06;;;;;;;11.70;5.90;;;17.50;70.80;;;;;;4919389;29;20047;-61
2023/06/30 04:24:35;;;;;;;9.52;5.40;;;17.50;71.00;;;;;;4921302;29;20064;-60
2023/06/30 04:27:02;;;;;;;9.30;5.15;;;17.60;71.20;;;;;;4920157;29;20056;-59
2023/06/30 04:29:29;;;;;;;10.77;5.78;;;17.60;71.40;;;;;;4920591;29;20522;-58
2023/06/30 04:31:57;;;;;;;12.57;6.97;;;17.50;71.20;;;;;;4920785;29;20051;-59
2023/06/30 04:34:24;;;;;;;14.63;8.38;;;17.60;71.10;;;;;;4920307;29;20385;-59
2023/06/30 04:36:51;;;;;;;15.50;9.75;;;17.50;71.00;;;;;;4920532;29;20058;-59
2023/06/30 04:39:19;;;;;;;15.68;11.07;;;17.50;71.10;;;;;;4922831;29;20059;-59
2023/06/30 04:41:47;;;;;;;20.42;12.70;;;17.50;71.20;;;;;;4920503;29;20393;-58
2023/06/30 04:44:15;;;;;;;22.38;15.05;;;17.50;71.50;;;;;;4921098;29;20066;-58
2023/06/30 04:46:42;;;;;;;30.08;15.55;;;17.50;71.60;;;;;;4918166;29;20055;-60
2023/06/30 04:49:09;;;;;;;25.50;17.38;;;17.50;71.90;;;;;;4919218;29;20419;-58
2023/06/30 04:51:36;;;;;;;28.65;19.52;;;17.50;71.90;;;;;;4918622;29;20059;-59
2023/06/30 04:54:04;;;;;;;26.05;20.10;;;17.50;72.00;;;;;;4917195;29;20052;-59
2023/06/30 04:56:31;;;;;;;30.35;20.50;;;17.50;72.30;;;;;;4919985;29;20055;-59
2023/06/30 04:59:00;;;;;;;28.65;21.67;;;17.40;72.40;;;;;;4918581;29;20055;-59
2023/06/30 05:01:27;;;;;;;32.53;23.00;;;17.40;72.40;;;;;;4918754;29;20508;-61
2023/06/30 05:03:54;;;;;;;25.60;17.55;;;17.40;72.30;;;;;;4919701;29;20063;-59
2023/06/30 05:06:22;;;;;;;25.35;15.90;;;17.40;72.10;;;;;;4918935;29;20066;-60
2023/06/30 05:08:49;;;;;;;20.70;12.95;;;17.40;71.90;;;;;;4920911;29;20511;-60
2023/06/30 05:11:16;;;;;;;17.70;12.15;;;17.40;71.70;;;;;;4924097;29;20054;-63
2023/06/30 05:13:43;;;;;;;17.90;11.70;;;17.40;71.50;;;;;;4920557;29;20059;-61
2023/06/30 05:16:13;;;;;;;17.95;10.90;;;17.30;71.40;;;;;;4920613;29;20063;-60
2023/06/30 05:18:40;;;;;;;19.25;13.45;;;17.30;71.40;;;;;;4918844;29;20063;-60
2023/06/30 05:21:08;;;;;;;18.80;13.18;;;17.20;71.40;;;;;;4920025;29;20051;-59
2023/06/30 05:23:35;;;;;;;24.08;15.93;;;17.20;71.50;;;;;;4925089;29;20075;-61
2023/06/30 05:26:03;;;;;;;24.35;16.30;;;17.20;71.70;;;;;;4926231;29;20055;-60
2023/06/30 05:28:30;;;;;;;25.88;19.42;;;17.20;71.90;;;;;;4926779;29;20075;-59
2023/06/30 05:30:57;;;;;;;29.77;20.38;;;17.20;72.30;;;;;;4925245;29;20052;-59
2023/06/30 05:33:26;;;;;;;25.95;19.13;;;17.20;72.50;;;;;;4927804;29;20397;-60
2023/06/30 05:35:53;;;;;;;31.55;21.08;;;17.20;73.10;;;;;;4927315;29;20404;-58
2023/06/30 05:38:20;;;;;;;30.52;21.23;;;17.20;73.10;;;;;;4926249;29;20064;-59
2023/06/30 05:40:48;;;;;;;40.50;23.83;;;17.20;73.50;;;;;;4925967;29;20052;-61
2023/06/30 05:43:17;;;;;;;32.13;22.92;;;17.20;73.60;;;;;;4914291;29;20522;-61
2023/06/30 05:45:44;;;;;;;33.53;23.20;;;17.20;73.60;;;;;;4921744;29;20074;-62
2023/06/30 05:48:12;;;;;;;44.00;24.27;;;17.20;73.70;;;;;;4921066;29;20419;-60
2023/06/30 05:50:40;;;;;;;34.40;24.35;;;17.20;73.80;;;;;;4920036;29;20060;-61
2023/06/30 05:53:08;;;;;;;36.80;26.98;;;17.20;74.00;;;;;;4923833;29;20055;-61
2023/06/30 05:55:35;;;;;;;33.78;24.55;;;17.20;74.00;;;;;;4924837;29;20051;-62
2023/06/30 05:58:03;;;;;;;38.58;24.63;;;17.30;74.10;;;;;;4922420;29;20160;-61
2023/06/30 06:00:30;;;;;;;37.90;24.05;;;17.30;74.30;;;;;;4923943;29;20071;-61
2023/06/30 06:02:57;;;;;;;30.05;22.23;;;17.30;74.40;;;;;;4921337;29;20067;-60
2023/06/30 06:05:24;;;;;;;26.30;20.63;;;17.30;74.10;;;;;;4926209;29;20437;-60
2023/06/30 06:07:53;;;;;;;23.02;18.75;;;17.40;74.10;;;;;;4923203;29;20155;-59
2023/06/30 06:10:20;;;;;;;26.20;19.63;;;17.40;74.20;;;;;;4923239;29;20086;-60
2023/06/30 06:12:50;;;;;;;20.58;15.65;;;17.40;73.70;;;;;;4922982;29;20055;-61
2023/06/30 06:15:17;;;;;;;28.42;20.75;;;17.40;72.90;;;;;;4926001;29;20063;-59
2023/06/30 06:17:45;;;;;;;28.35;19.83;;;17.40;72.70;;;;;;4924749;29;20048;-59
2023/06/30 06:20:12;;;;;;;32.00;22.13;;;17.40;72.80;;;;;;4919783;29;20055;-62
2023/06/30 06:22:40;;;;;;;23.58;18.92;;;17.40;73.00;;;;;;4923982;29;20052;-61
2023/06/30 06:25:11;;;;;;;27.65;21.52;;;17.40;73.20;;;;;;4921461;29;20047;-60
2023/06/30 06:27:39;;;;;;;33.40;25.63;;;17.40;73.50;;;;;;4925064;29;20056;-61
2023/06/30 06:30:07;;;;;;;34.67;25.50;;;17.40;73.20;;;;;;4922632;29;20059;-62
2023/06/30 06:32:34;;;;;;;35.40;26.55;;;17.50;73.20;;;;;;4920515;29;20381;-61
2023/06/30 06:35:02;;;;;;;33.38;23.30;;;17.50;73.00;;;;;;4919770;29;20535;-61
2023/06/30 06:37:29;;;;;;;31.75;21.73;;;17.50;72.50;;;;;;4919841;29;20066;-61
2023/06/30 06:39:56;;;;;;;31.38;21.42;;;17.50;72.40;;;;;;4921638;29;20062;-61
2023/06/30 06:42:25;;;;;;;29.65;20.02;;;17.50;72.60;;;;;;4916576;29;20052;-62
2023/06/30 06:44:54;;;;;;;33.97;21.20;;;17.60;72.40;;;;;;4919571;29;20051;-61
2023/06/30 06:47:58;;;;;;;28.58;20.25;;;17.60;72.60;;;;;;4923603;29;20062;-63
2023/06/30 06:50:25;;;;;;;33.70;20.67;;;17.60;72.60;;;;;;4918064;29;20078;-63
2023/06/30 06:52:52;;;;;;;27.60;21.25;;;17.60;72.40;;;;;;4922643;29;20503;-60
2023/06/30 06:55:20;;;;;;;30.88;19.73;;;17.60;71.90;;;;;;4921760;29;20475;-60
2023/06/30 06:57:48;;;;;;;28.45;19.60;;;17.70;72.10;;;;;;4917452;29;20085;-60
2023/06/30 07:00:17;;;;;;;26.50;20.02;;;17.70;72.30;;;;;;4922081;29;20063;-60
2023/06/30 07:02:44;;;;;;;30.30;20.40;;;17.70;72.50;;;;;;4921187;29;20438;-60
2023/06/30 07:05:12;;;;;;;33.85;20.10;;;17.70;72.60;;;;;;4922303;29;20059;-59
2023/06/30 07:07:39;;;;;;;26.35;19.10;;;17.70;72.80;;;;;;4917183;29;20052;-61
2023/06/30 07:10:07;;;;;;;28.55;19.83;;;17.80;72.60;;;;;;4923419;29;20515;-61
2023/06/30 07:12:35;;;;;;;29.80;19.70;;;17.80;72.30;;;;;;4922676;29;20059;-61
2023/06/30 07:15:04;;;;;;;25.45;18.42;;;17.80;72.40;;;;;;4923159;29;20063;-60
2023/06/30 07:17:31;;;;;;;29.80;18.73;;;17.80;72.50;;;;;;4921573;29;20577;-62
2023/06/30 07:19:59;;;;;;;28.48;17.77;;;17.90;72.70;;;;;;4922918;29;20496;-60
2023/06/30 07:22:26;;;;;;;23.23;17.60;;;17.90;73.20;;;;;;4921691;29;20055;-61
2023/06/30 07:24:54;;;;;;;23.75;17.38;;;18.00;73.30;;;;;;4918738;29;20399;-63
2023/06/30 07:27:21;;;;;;;29.92;19.10;;;18.00;73.30;;;;;;4920756;29;20059;-60
2023/06/30 07:29:49;;;;;;;28.85;18.48;;;18.10;72.60;;;;;;4919370;29;20079;-61
2023/06/30 07:32:18;;;;;;;24.88;18.67;;;18.20;71.70;;;;;;4919840;29;20048;-62
2023/06/30 07:34:45;;;;;;;25.58;18.10;;;18.20;71.60;;;;;;4918544;29;20063;-60
2023/06/30 07:37:12;;;;;;;33.20;18.48;;;18.20;70.70;;;;;;4918906;29;20431;-61
2023/06/30 07:39:39;;;;;;;33.08;20.02;;;18.20;69.80;;;;;;4923092;29;20428;-59
2023/06/30 07:42:07;;;;;;;22.90;17.40;;;18.30;69.40;;;;;;4922329;29;20133;-64
2023/06/30 07:44:34;;;;;;;26.52;19.95;;;18.30;69.50;;;;;;4922275;29;20052;-60
2023/06/30 07:47:01;;;;;;;28.85;19.25;;;18.30;69.50;;;;;;4922070;29;20056;-64
2023/06/30 07:49:30;;;;;;;26.17;19.23;;;18.30;68.90;;;;;;4916418;29;20159;-61
2023/06/30 07:51:57;;;;;;;30.10;17.55;;;18.30;68.30;;;;;;4920627;29;20062;-61
2023/06/30 07:54:25;;;;;;;24.27;15.63;;;18.30;67.90;;;;;;4915155;29;20056;-62
2023/06/30 07:56:52;;;;;;;20.95;15.02;;;18.20;66.80;;;;;;4915806;29;20059;-59
2023/06/30 07:59:20;;;;;;;22.95;15.05;;;18.20;66.70;;;;;;4921274;29;20492;-59
2023/06/30 08:01:47;;;;;;;32.45;15.40;;;18.30;66.30;;;;;;4921551;29;20059;-62
2023/06/30 08:04:14;;;;;;;28.10;16.38;;;18.30;66.90;;;;;;4918335;29;20082;-63
2023/06/30 08:06:43;;;;;;;25.17;17.45;;;18.30;64.80;;;;;;4921965;29;20059;-63
2023/06/30 08:09:10;;;;;;;28.90;17.35;;;18.30;64.00;;;;;;4919339;29;20063;-65
2023/06/30 08:11:37;;;;;;;24.35;17.30;;;18.30;63.80;;;;;;4919316;29;21624;-65
2023/06/30 08:14:06;;;;;;;22.55;17.48;;;18.30;65.30;;;;;;4919393;29;20496;-63
2023/06/30 08:16:33;;;;;;;24.23;17.50;;;18.30;64.50;;;;;;4920982;29;20620;-65
2023/06/30 08:19:01;;;;;;;21.45;15.77;;;18.30;63.20;;;;;;4918946;29;20155;-63
2023/06/30 08:21:28;;;;;;;17.33;11.57;;;18.40;63.70;;;;;;4920271;29;20055;-64
2023/06/30 08:23:56;;;;;;;13.57;11.20;;;18.40;60.70;;;;;;4918295;29;20048;-64
2023/06/30 08:26:24;;;;;;;19.60;13.55;;;18.30;60.30;;;;;;4920025;29;20168;-62
2023/06/30 08:28:51;;;;;;;14.95;12.48;;;18.40;61.40;;;;;;4919149;29;20067;-63
2023/06/30 08:31:19;;;;;;;15.68;12.68;;;18.40;60.90;;;;;;4922444;29;20063;-64
2023/06/30 08:33:46;;;;;;;19.70;12.52;;;18.40;60.80;;;;;;4920865;29;20098;-63
2023/06/30 08:36:13;;;;;;;11.88;9.57;;;18.40;60.90;;;;;;4917855;29;20067;-66
2023/06/30 08:38:40;;;;;;;13.35;9.98;;;18.40;60.90;;;;;;4919994;29;20056;-65
2023/06/30 08:41:10;;;;;;;20.67;10.80;;;18.40;60.10;;;;;;4921489;29;20063;-64
2023/06/30 08:43:40;;;;;;;22.85;8.80;;;18.40;60.50;;;;;;4916188;29;20407;-61
2023/06/30 08:46:10;;;;;;;10.13;7.15;;;18.40;58.90;;;;;;4919301;29;20055;-66
2023/06/30 08:48:37;;;;;;;14.98;7.35;;;18.40;58.50;;;;;;4918582;29;20071;-65
2023/06/30 08:51:06;;;;;;;10.57;6.32;;;18.40;58.80;;;;;;4919939;29;20055;-63
2023/06/30 08:53:34;;;;;;;11.32;6.90;;;18.40;57.80;;;;;;4918541;29;20056;-63
2023/06/30 08:56:01;;;;;;;13.10;6.15;;;18.50;57.00;;;;;;4922179;29;20060;-61
2023/06/30 08:58:30;;;;;;;12.52;5.63;;;18.40;56.90;;;;;;4916193;29;20059;-64
2023/06/30 09:00:57;;;;;;;20.10;6.22;;;18.50;57.50;;;;;;4914582;29;20083;-62
2023/06/30 09:03:24;;;;;;;15.65;5.05;;;18.40;55.70;;;;;;4919177;29;20043;-64
2023/06/30 09:05:55;;;;;;;17.55;4.30;;;18.50;56.10;;;;;;4917471;29;20059;-61
2023/06/30 09:08:24;;;;;;;12.60;4.45;;;18.50;56.30;;;;;;4918955;29;20052;-63
2023/06/30 09:10:52;;;;;;;11.68;4.40;;;18.50;56.10;;;;;;4920620;29;20523;-65
2023/06/30 09:13:21;;;;;;;8.70;3.53;;;18.60;55.90;;;;;;4917690;29;20507;-62
2023/06/30 09:15:51;;;;;;;8.43;3.40;;;18.60;55.10;;;;;;4919898;29;20063;-63
2023/06/30 09:18:18;;;;;;;9.82;3.15;;;18.70;53.90;;;;;;4919342;29;20047;-61
2023/06/30 09:20:45;;;;;;;10.90;3.30;;;18.70;53.50;;;;;;4920011;29;20521;-63
2023/06/30 09:23:15;;;;;;;10.43;3.70;;;18.70;53.30;;;;;;4916436;29;20047;-63
2023/06/30 09:25:43;;;;;;;12.25;3.10;;;18.70;54.00;;;;;;4919543;29;20063;-66
2023/06/30 09:28:14;;;;;;;9.40;3.40;;;18.80;53.70;;;;;;4919174;29;20399;-64
2023/06/30 09:30:44;;;;;;;9.40;3.28;;;18.80;52.70;;;;;;4920896;29;20051;-65
2023/06/30 09:33:16;;;;;;;15.02;3.80;;;18.90;53.10;;;;;;4919574;29;20141;-65
2023/06/30 09:35:44;;;;;;;9.98;2.92;;;18.90;53.20;;;;;;4918851;29;20469;-64
2023/06/30 09:38:12;;;;;;;6.13;2.78;;;19.00;54.30;;;;;;4920517;29;20060;-65
2023/06/30 09:40:43;;;;;;;10.63;3.30;;;19.00;54.10;;;;;;4917491;29;20067;-67
2023/06/30 09:43:17;;;;;;;7.80;2.58;;;19.10;53.70;;;;;;4919224;29;20055;-64
2023/06/30 09:45:46;;;;;;;8.00;2.22;;;19.20;53.30;;;;;;4921834;29;20058;-60
2023/06/30 09:48:15;;;;;;;10.43;2.92;;;19.20;53.70;;;;;;4922074;29;20423;-61
2023/06/30 09:50:43;;;;;;;5.75;2.00;;;19.30;53.70;;;;;;4918980;29;20059;-64
2023/06/30 09:53:10;;;;;;;8.60;2.08;;;19.40;52.60;;;;;;4921076;29;20055;-62
2023/06/30 09:55:48;;;;;;;6.35;2.70;;;19.40;52.90;;;;;;4917614;29;20428;-63
2023/06/30 09:58:16;;;;;;;8.50;2.65;;;19.50;52.30;;;;;;4919841;29;20424;-66
2023/06/30 10:00:44;;;;;;;10.35;3.03;;;19.60;52.10;;;;;;4916001;29;20074;-63
2023/06/30 10:03:11;;;;;;;7.00;2.58;;;19.60;51.80;;;;;;4920700;29;20052;-61
2023/06/30 10:05:40;;;;;;;8.98;2.40;;;19.70;50.70;;;;;;4916138;29;20063;-65
2023/06/30 10:08:08;;;;;;;10.27;2.67;;;19.80;50.50;;;;;;4920854;29;20055;-65
2023/06/30 10:10:35;;;;;;;7.03;2.17;;;19.80;49.70;;;;;;4919839;29;20078;-61
2023/06/30 10:13:03;;;;;;;5.38;1.77;;;19.90;50.50;;;;;;4923596;29;20059;-59
2023/06/30 10:15:32;;;;;;;12.63;2.80;;;20.00;50.60;;;;;;4921253;29;20518;-60
2023/06/30 10:18:00;;;;;;;7.82;2.88;;;20.10;48.60;;;;;;4925573;29;20547;-61
2023/06/30 10:20:27;;;;;;;8.95;2.25;;;20.10;48.50;;;;;;4925077;29;20422;-60
2023/06/30 10:23:00;;;;;;;6.80;2.55;;;20.20;49.90;;;;;;4921549;29;20051;-60
2023/06/30 10:25:29;;;;;;;3.00;1.80;;;20.30;49.70;;;;;;4920946;29;20051;-61
2023/06/30 10:27:57;;;;;;;6.00;1.90;;;20.40;49.30;;;;;;4921515;29;20047;-62
2023/06/30 10:30:25;;;;;;;6.15;2.03;;;20.50;49.50;;;;;;4921593;29;20067;-60
2023/06/30 10:32:53;;;;;;;5.13;2.13;;;20.60;49.80;;;;;;4923001;29;20060;-60
2023/06/30 10:35:22;;;;;;;7.05;2.40;;;20.60;50.20;;;;;;4921109;29;20476;-61
2023/06/30 10:37:49;;;;;;;6.82;1.90;;;20.70;47.90;;;;;;4923838;29;20055;-60
2023/06/30 10:40:30;;;;;;;6.18;2.00;;;20.80;48.40;;;;;;4921683;29;20051;-64
2023/06/30 10:42:59;;;;;;;8.05;2.30;;;20.80;48.00;;;;;;4920247;29;20677;-64
2023/06/30 10:45:34;;;;;;;5.95;1.85;;;20.90;47.80;;;;;;4923627;29;20052;-61
2023/06/30 10:48:09;;;;;;;5.38;1.95;;;20.90;47.90;;;;;;4920402;29;20063;-60
2023/06/30 10:50:41;;;;;;;11.15;2.40;;;21.00;48.50;;;;;;4922442;29;20055;-62
2023/06/30 10:53:08;;;;;;;5.28;2.30;;;21.10;47.40;;;;;;4922856;29;20051;-62
2023/06/30 10:55:43;;;;;;;5.47;2.22;;;21.10;47.30;;;;;;4922402;29;20055;-61
2023/06/30 10:58:11;;;;;;;5.90;2.10;;;21.20;48.20;;;;;;4922338;29;20056;-63
2023/06/30 11:00:38;;;;;;;3.85;1.50;;;21.30;45.00;;;;;;4922123;29;20047;-64
2023/06/30 11:03:06;;;;;;;7.20;1.88;;;21.40;44.20;;;;;;4923366;29;20060;-60
2023/06/30 11:05:34;;;;;;;5.95;1.90;;;21.40;44.50;;;;;;4916382;29;20500;-61
2023/06/30 11:08:07;;;;;;;5.82;1.88;;;21.40;44.60;;;;;;4918817;29;20071;-66
2023/06/30 11:10:37;;;;;;;9.30;2.60;;;21.40;43.50;;;;;;4923120;29;20055;-65
2023/06/30 11:13:09;;;;;;;6.72;2.08;;;21.40;42.60;;;;;;4918919;29;20048;-65
2023/06/30 11:15:38;;;;;;;5.55;1.58;;;21.40;43.00;;;;;;4918691;29;20062;-60
2023/06/30 11:18:07;;;;;;;6.43;2.03;;;21.40;42.50;;;;;;4920925;29;20056;-64
2023/06/30 11:20:34;;;;;;;7.95;1.75;;;21.40;42.10;;;;;;4921404;29;20062;-63
2023/06/30 11:23:03;;;;;;;4.40;1.95;;;21.40;43.20;;;;;;4922047;29;20059;-59
2023/06/30 11:25:33;;;;;;;11.13;2.80;;;21.40;44.20;;;;;;4919101;29;20058;-60
2023/06/30 11:28:04;;;;;;;4.63;1.85;;;21.50;43.80;;;;;;4919185;29;20500;-61
2023/06/30 11:30:37;;;;;;;3.40;1.63;;;21.60;41.90;;;;;;4922286;29;20055;-63
2023/06/30 11:33:06;;;;;;;4.13;1.77;;;21.60;41.10;;;;;;4921025;29;20500;-59
2023/06/30 11:35:34;;;;;;;3.92;1.15;;;21.60;42.20;;;;;;4919199;29;20067;-62
2023/06/30 11:38:01;;;;;;;2.83;1.50;;;21.60;43.50;;;;;;4922445;29;20048;-53
2023/06/30 11:40:29;;;;;;;3.85;1.42;;;21.70;44.00;;;;;;4920313;29;20051;-62
2023/06/30 11:42:56;;;;;;;6.00;2.17;;;21.70;43.20;;;;;;4920241;29;20389;-60
2023/06/30 11:45:27;;;;;;;7.18;1.92;;;21.80;42.50;;;;;;4920222;29;20048;-58
2023/06/30 11:47:56;;;;;;;5.13;1.80;;;21.90;42.80;;;;;;4921025;29;20062;-61
2023/06/30 11:50:25;;;;;;;3.17;1.48;;;21.90;43.10;;;;;;4920930;29;20166;-62
2023/06/30 11:52:52;;;;;;;7.05;1.70;;;22.00;42.60;;;;;;4919692;29;20060;-62
2023/06/30 11:55:20;;;;;;;3.97;1.73;;;22.00;40.90;;;;;;4921691;29;20051;-63
2023/06/30 11:57:47;;;;;;;3.67;1.48;;;22.00;41.10;;;;;;4918750;29;20397;-59
2023/06/30 12:00:17;;;;;;;4.15;1.80;;;22.00;41.40;;;;;;4920220;29;20051;-59
2023/06/30 12:02:47;;;;;;;4.75;1.50;;;22.00;40.40;;;;;;4919959;29;20062;-58
2023/06/30 12:05:17;;;;;;;4.15;1.52;;;22.00;40.30;;;;;;4920381;29;20059;-54
2023/06/30 12:07:45;;;;;;;6.55;1.17;;;22.00;41.20;;;;;;4923072;29;20420;-57
2023/06/30 12:10:14;;;;;;;4.63;1.50;;;22.00;41.90;;;;;;4922468;29;20056;-61
2023/06/30 12:12:42;;;;;;;8.93;1.33;;;22.00;42.00;;;;;;4921321;29;20132;-60
2023/06/30 12:15:12;;;;;;;4.47;1.52;;;22.10;40.70;;;;;;4920659;29;20051;-62
2023/06/30 12:17:42;;;;;;;3.00;1.23;;;22.10;41.70;;;;;;4921588;29;20487;-60
2023/06/30 12:20:12;;;;;;;10.30;1.70;;;22.20;41.50;;;;;;4918813;29;20058;-55
2023/06/30 12:22:44;;;;;;;4.28;1.33;;;22.20;40.70;;;;;;4917853;29;20408;-57
2023/06/30 12:25:14;;;;;;;4.80;1.52;;;22.30;41.80;;;;;;4918727;29;20047;-58
2023/06/30 12:27:43;;;;;;;4.28;1.50;;;22.40;41.50;;;;;;4915853;29;20078;-59
2023/06/30 12:30:17;;;;;;;3.03;1.20;;;22.50;41.30;;;;;;4920780;29;20056;-59
2023/06/30 12:32:45;;;;;;;;;;;22.60;42.10;;;;;;4922586;29;20060;-58
2023/06/30 12:35:13;;;;;;;4.10;1.55;;;22.70;42.30;;;;;;4920702;29;19927;-61
2023/06/30 12:40:23;;;;;;;4.28;1.80;;;22.90;39.80;;;;;;4921680;29;20063;-59
2023/06/30 12:42:53;;;;;;;2.90;1.38;;;23.00;38.90;;;;;;4922346;29;20052;-60